sensor_id;sensor_type;location;lat;lon;timestamp;temperature;humidity
11112;DHT22;5609;49.466;8.468;2022-07-19T00:01:10;21.80;99.90
11112;DHT22;5609;49.466;8.468;2022-07-19T00:03:37;21.70;99.90
11112;DHT22;5609;49.466;8.468;2022-07-19T00:06:04;21.70;99.90
11112;DHT22;5609;49.466;8.468;2022-07-19T00:08:31;21.60;99.90
11112;DHT22;5609;49.466;8.468;2022-07-19T00:10:57;21.60;99.90
11112;DHT22;5609;49.466;8.468;2022-07-19T00:13:26;21.50;99.90
11112;DHT22;5609;49.466;8.468;2022-07-19T00:15:53;21.50;99.90
11112;DHT22;5609;49.466;8.468;2022-07-19T00:18:19;21.40;99.90
11112;DHT22;5609;49.466;8.468;2022-07-19T00:20:46;21.40;99.90
11112;DHT22;5609;49.466;8.468;2022-07-19T00:23:13;21.40;99.90
11112;DHT22;5609;49.466;8.468;2022-07-19T00:25:40;21.40;99.90
11112;DHT22;5609;49.466;8.468;2022-07-19T00:28:07;21.30;99.90
11112;DHT22;5609;49.466;8.468;2022-07-19T00:30:35;21.30;99.90
11112;DHT22;5609;49.466;8.468;2022-07-19T00:33:02;21.30;99.90
11112;DHT22;5609;49.466;8.468;2022-07-19T00:35:30;21.20;99.90
11112;DHT22;5609;49.466;8.468;2022-07-19T00:38:02;21.20;99.90
11112;DHT22;5609;49.466;8.468;2022-07-19T00:40:29;21.10;99.90
11112;DHT22;5609;49.466;8.468;2022-07-19T00:42:56;21.10;99.90
11112;DHT22;5609;49.466;8.468;2022-07-19T00:45:23;21.00;99.90
11112;DHT22;5609;49.466;8.468;2022-07-19T00:47:51;21.00;99.90
11112;DHT22;5609;49.466;8.468;2022-07-19T00:50:19;20.90;99.90
11112;DHT22;5609;49.466;8.468;2022-07-19T00:52:49;20.90;99.90
11112;DHT22;5609;49.466;8.468;2022-07-19T00:55:18;20.80;99.90
11112;DHT22;5609;49.466;8.468;2022-07-19T00:57:45;20.80;99.90
11112;DHT22;5609;49.466;8.468;2022-07-19T01:00:13;20.80;99.90
11112;DHT22;5609;49.466;8.468;2022-07-19T01:02:42;20.80;99.90
11112;DHT22;5609;49.466;8.468;2022-07-19T01:05:11;20.70;99.90
11112;DHT22;5609;49.466;8.468;2022-07-19T01:07:39;20.70;99.90
11112;DHT22;5609;49.466;8.468;2022-07-19T01:10:08;20.60;99.90
11112;DHT22;5609;49.466;8.468;2022-07-19T01:12:37;20.60;99.90
11112;DHT22;5609;49.466;8.468;2022-07-19T01:15:13;20.60;99.90
11112;DHT22;5609;49.466;8.468;2022-07-19T01:17:40;20.60;99.90
11112;DHT22;5609;49.466;8.468;2022-07-19T01:20:07;20.60;99.90
11112;DHT22;5609;49.466;8.468;2022-07-19T01:22:36;20.50;99.90
11112;DHT22;5609;49.466;8.468;2022-07-19T01:25:04;20.50;99.90
11112;DHT22;5609;49.466;8.468;2022-07-19T01:27:31;20.40;99.90
11112;DHT22;5609;49.466;8.468;2022-07-19T01:30:10;20.40;99.90
11112;DHT22;5609;49.466;8.468;2022-07-19T01:32:37;20.40;99.90
11112;DHT22;5609;49.466;8.468;2022-07-19T01:35:04;20.40;99.90
11112;DHT22;5609;49.466;8.468;2022-07-19T01:37:31;20.30;99.90
11112;DHT22;5609;49.466;8.468;2022-07-19T01:40:00;20.30;99.90
11112;DHT22;5609;49.466;8.468;2022-07-19T01:42:26;20.30;99.90
11112;DHT22;5609;49.466;8.468;2022-07-19T01:44:53;20.30;99.90
11112;DHT22;5609;49.466;8.468;2022-07-19T01:47:20;20.20;99.90
11112;DHT22;5609;49.466;8.468;2022-07-19T01:49:47;20.20;99.90
11112;DHT22;5609;49.466;8.468;2022-07-19T01:52:14;20.10;99.90
11112;DHT22;5609;49.466;8.468;2022-07-19T01:59:37;20.10;99.90
11112;DHT22;5609;49.466;8.468;2022-07-19T02:02:04;19.90;99.90
11112;DHT22;5609;49.466;8.468;2022-07-19T02:04:31;19.90;99.90
11112;DHT22;5609;49.466;8.468;2022-07-19T02:06:58;19.80;99.90
11112;DHT22;5609;49.466;8.468;2022-07-19T02:09:25;19.80;99.90
11112;DHT22;5609;49.466;8.468;2022-07-19T02:11:52;19.80;99.90
11112;DHT22;5609;49.466;8.468;2022-07-19T02:14:20;19.80;99.90
11112;DHT22;5609;49.466;8.468;2022-07-19T02:16:47;19.80;99.90
11112;DHT22;5609;49.466;8.468;2022-07-19T02:19:14;19.80;99.90
11112;DHT22;5609;49.466;8.468;2022-07-19T02:21:41;19.70;99.90
11112;DHT22;5609;49.466;8.468;2022-07-19T02:24:08;19.70;99.90
11112;DHT22;5609;49.466;8.468;2022-07-19T02:26:35;19.60;99.90
11112;DHT22;5609;49.466;8.468;2022-07-19T02:29:03;19.60;99.90
11112;DHT22;5609;49.466;8.468;2022-07-19T02:31:31;19.50;99.90
11112;DHT22;5609;49.466;8.468;2022-07-19T02:33:58;19.50;99.90
11112;DHT22;5609;49.466;8.468;2022-07-19T02:36:25;19.40;99.90
11112;DHT22;5609;49.466;8.468;2022-07-19T02:38:52;19.40;99.90
11112;DHT22;5609;49.466;8.468;2022-07-19T02:41:19;19.40;99.90
11112;DHT22;5609;49.466;8.468;2022-07-19T02:43:46;19.30;99.90
11112;DHT22;5609;49.466;8.468;2022-07-19T02:46:13;19.30;99.90
11112;DHT22;5609;49.466;8.468;2022-07-19T02:48:41;19.20;99.90
11112;DHT22;5609;49.466;8.468;2022-07-19T02:51:09;19.20;99.90
11112;DHT22;5609;49.466;8.468;2022-07-19T02:53:37;19.20;99.90
11112;DHT22;5609;49.466;8.468;2022-07-19T02:56:04;19.10;99.90
11112;DHT22;5609;49.466;8.468;2022-07-19T02:58:31;19.00;99.90
11112;DHT22;5609;49.466;8.468;2022-07-19T03:00:58;18.90;99.90
11112;DHT22;5609;49.466;8.468;2022-07-19T03:03:24;18.80;99.90
11112;DHT22;5609;49.466;8.468;2022-07-19T03:06:11;18.80;99.90
11112;DHT22;5609;49.466;8.468;2022-07-19T03:08:38;18.80;99.90
11112;DHT22;5609;49.466;8.468;2022-07-19T03:11:05;18.80;99.90
11112;DHT22;5609;49.466;8.468;2022-07-19T03:13:32;18.80;99.90
11112;DHT22;5609;49.466;8.468;2022-07-19T03:15:59;18.80;99.90
11112;DHT22;5609;49.466;8.468;2022-07-19T03:18:26;18.70;99.90
11112;DHT22;5609;49.466;8.468;2022-07-19T03:20:53;18.70;99.90
11112;DHT22;5609;49.466;8.468;2022-07-19T03:23:21;18.60;99.90
11112;DHT22;5609;49.466;8.468;2022-07-19T03:25:48;18.50;99.90
11112;DHT22;5609;49.466;8.468;2022-07-19T03:28:15;18.60;99.90
11112;DHT22;5609;49.466;8.468;2022-07-19T03:30:42;18.60;99.90
11112;DHT22;5609;49.466;8.468;2022-07-19T03:33:10;18.50;99.90
11112;DHT22;5609;49.466;8.468;2022-07-19T03:35:41;18.50;99.90
11112;DHT22;5609;49.466;8.468;2022-07-19T03:38:09;18.60;99.90
11112;DHT22;5609;49.466;8.468;2022-07-19T03:40:38;18.60;99.90
11112;DHT22;5609;49.466;8.468;2022-07-19T03:43:05;18.70;99.90
11112;DHT22;5609;49.466;8.468;2022-07-19T03:45:33;18.70;99.90
11112;DHT22;5609;49.466;8.468;2022-07-19T03:47:59;18.70;99.90
11112;DHT22;5609;49.466;8.468;2022-07-19T03:50:27;18.70;99.90
11112;DHT22;5609;49.466;8.468;2022-07-19T03:52:53;18.70;99.90
11112;DHT22;5609;49.466;8.468;2022-07-19T03:55:20;18.70;99.90
11112;DHT22;5609;49.466;8.468;2022-07-19T03:57:49;18.80;99.90
11112;DHT22;5609;49.466;8.468;2022-07-19T04:00:16;18.70;99.90
11112;DHT22;5609;49.466;8.468;2022-07-19T04:02:43;18.60;99.90
11112;DHT22;5609;49.466;8.468;2022-07-19T04:05:10;18.60;99.90
11112;DHT22;5609;49.466;8.468;2022-07-19T04:07:37;18.60;99.90
11112;DHT22;5609;49.466;8.468;2022-07-19T04:10:05;18.60;99.90
11112;DHT22;5609;49.466;8.468;2022-07-19T04:12:32;18.50;99.90
11112;DHT22;5609;49.466;8.468;2022-07-19T04:15:00;18.50;99.90
11112;DHT22;5609;49.466;8.468;2022-07-19T04:17:27;18.60;99.90
11112;DHT22;5609;49.466;8.468;2022-07-19T04:19:54;18.60;99.90
11112;DHT22;5609;49.466;8.468;2022-07-19T04:22:21;18.70;99.90
11112;DHT22;5609;49.466;8.468;2022-07-19T04:24:49;18.70;99.90
11112;DHT22;5609;49.466;8.468;2022-07-19T04:27:16;18.70;99.90
11112;DHT22;5609;49.466;8.468;2022-07-19T04:29:43;18.80;99.90
11112;DHT22;5609;49.466;8.468;2022-07-19T04:32:11;18.80;99.90
11112;DHT22;5609;49.466;8.468;2022-07-19T04:34:37;18.80;99.90
11112;DHT22;5609;49.466;8.468;2022-07-19T04:37:04;18.80;99.90
11112;DHT22;5609;49.466;8.468;2022-07-19T04:39:31;18.80;99.90
11112;DHT22;5609;49.466;8.468;2022-07-19T04:41:58;18.90;99.90
11112;DHT22;5609;49.466;8.468;2022-07-19T04:44:25;19.00;99.90
11112;DHT22;5609;49.466;8.468;2022-07-19T04:46:52;19.10;99.90
11112;DHT22;5609;49.466;8.468;2022-07-19T04:49:20;19.10;99.90
11112;DHT22;5609;49.466;8.468;2022-07-19T04:51:47;19.20;99.90
11112;DHT22;5609;49.466;8.468;2022-07-19T04:54:14;19.20;99.90
11112;DHT22;5609;49.466;8.468;2022-07-19T04:56:41;19.30;99.90
11112;DHT22;5609;49.466;8.468;2022-07-19T04:59:07;19.30;99.90
11112;DHT22;5609;49.466;8.468;2022-07-19T05:01:34;19.40;99.90
11112;DHT22;5609;49.466;8.468;2022-07-19T05:04:01;19.40;99.90
11112;DHT22;5609;49.466;8.468;2022-07-19T05:06:29;19.40;99.90
11112;DHT22;5609;49.466;8.468;2022-07-19T05:08:56;19.50;99.90
11112;DHT22;5609;49.466;8.468;2022-07-19T05:11:23;19.60;99.90
11112;DHT22;5609;49.466;8.468;2022-07-19T05:13:50;19.60;99.90
11112;DHT22;5609;49.466;8.468;2022-07-19T05:16:17;19.70;99.90
11112;DHT22;5609;49.466;8.468;2022-07-19T05:18:43;19.80;99.90
11112;DHT22;5609;49.466;8.468;2022-07-19T05:21:10;19.90;99.90
11112;DHT22;5609;49.466;8.468;2022-07-19T05:23:39;20.00;99.90
11112;DHT22;5609;49.466;8.468;2022-07-19T05:26:07;20.10;99.90
11112;DHT22;5609;49.466;8.468;2022-07-19T05:28:33;20.40;99.90
11112;DHT22;5609;49.466;8.468;2022-07-19T05:31:00;20.90;99.90
11112;DHT22;5609;49.466;8.468;2022-07-19T05:33:27;21.30;99.90
11112;DHT22;5609;49.466;8.468;2022-07-19T05:35:55;21.70;99.90
11112;DHT22;5609;49.466;8.468;2022-07-19T05:38:22;22.10;99.90
11112;DHT22;5609;49.466;8.468;2022-07-19T05:40:51;22.40;99.90
11112;DHT22;5609;49.466;8.468;2022-07-19T05:43:18;22.60;99.90
11112;DHT22;5609;49.466;8.468;2022-07-19T05:45:44;22.80;99.90
11112;DHT22;5609;49.466;8.468;2022-07-19T05:48:11;23.00;99.90
11112;DHT22;5609;49.466;8.468;2022-07-19T05:50:38;23.30;99.90
11112;DHT22;5609;49.466;8.468;2022-07-19T05:53:05;23.40;99.90
11112;DHT22;5609;49.466;8.468;2022-07-19T05:55:32;23.50;99.90
11112;DHT22;5609;49.466;8.468;2022-07-19T05:58:00;23.70;99.90
11112;DHT22;5609;49.466;8.468;2022-07-19T06:00:27;23.70;99.90
11112;DHT22;5609;49.466;8.468;2022-07-19T06:02:54;23.70;99.90
11112;DHT22;5609;49.466;8.468;2022-07-19T06:05:21;23.70;99.90
11112;DHT22;5609;49.466;8.468;2022-07-19T06:07:47;23.70;99.90
11112;DHT22;5609;49.466;8.468;2022-07-19T06:10:14;23.60;99.90
11112;DHT22;5609;49.466;8.468;2022-07-19T06:12:41;23.60;99.90
11112;DHT22;5609;49.466;8.468;2022-07-19T06:15:10;23.60;99.90
11112;DHT22;5609;49.466;8.468;2022-07-19T06:17:37;23.60;99.90
11112;DHT22;5609;49.466;8.468;2022-07-19T06:20:04;23.60;99.90
11112;DHT22;5609;49.466;8.468;2022-07-19T06:22:32;23.60;99.90
11112;DHT22;5609;49.466;8.468;2022-07-19T06:24:59;23.80;99.00
11112;DHT22;5609;49.466;8.468;2022-07-19T06:27:26;23.70;98.60
11112;DHT22;5609;49.466;8.468;2022-07-19T06:29:52;23.80;98.60
11112;DHT22;5609;49.466;8.468;2022-07-19T06:32:21;23.90;98.90
11112;DHT22;5609;49.466;8.468;2022-07-19T06:34:47;24.10;99.50
11112;DHT22;5609;49.466;8.468;2022-07-19T06:37:14;24.30;99.90
11112;DHT22;5609;49.466;8.468;2022-07-19T06:39:41;24.40;98.90
11112;DHT22;5609;49.466;8.468;2022-07-19T06:42:08;24.50;98.30
11112;DHT22;5609;49.466;8.468;2022-07-19T06:44:35;24.50;97.00
11112;DHT22;5609;49.466;8.468;2022-07-19T06:47:01;24.60;95.30
11112;DHT22;5609;49.466;8.468;2022-07-19T06:49:30;24.80;95.50
11112;DHT22;5609;49.466;8.468;2022-07-19T06:51:56;24.90;95.40
11112;DHT22;5609;49.466;8.468;2022-07-19T06:54:23;24.90;94.20
11112;DHT22;5609;49.466;8.468;2022-07-19T06:56:50;25.10;96.10
11112;DHT22;5609;49.466;8.468;2022-07-19T06:59:17;25.10;94.50
11112;DHT22;5609;49.466;8.468;2022-07-19T07:01:44;25.20;93.70
11112;DHT22;5609;49.466;8.468;2022-07-19T07:04:10;25.20;92.30
11112;DHT22;5609;49.466;8.468;2022-07-19T07:06:39;25.30;90.90
11112;DHT22;5609;49.466;8.468;2022-07-19T07:09:05;25.50;89.50
11112;DHT22;5609;49.466;8.468;2022-07-19T07:11:32;25.50;86.40
11112;DHT22;5609;49.466;8.468;2022-07-19T07:13:59;25.60;82.80
11112;DHT22;5609;49.466;8.468;2022-07-19T07:16:26;25.70;80.60
11112;DHT22;5609;49.466;8.468;2022-07-19T07:18:53;25.80;77.80
11112;DHT22;5609;49.466;8.468;2022-07-19T07:21:20;26.00;75.30
11112;DHT22;5609;49.466;8.468;2022-07-19T07:23:48;26.00;71.00
11112;DHT22;5609;49.466;8.468;2022-07-19T07:26:15;26.10;68.50
11112;DHT22;5609;49.466;8.468;2022-07-19T07:28:42;26.30;64.80
11112;DHT22;5609;49.466;8.468;2022-07-19T07:31:08;26.40;62.50
11112;DHT22;5609;49.466;8.468;2022-07-19T07:33:35;26.60;61.40
11112;DHT22;5609;49.466;8.468;2022-07-19T07:36:02;26.60;58.40
11112;DHT22;5609;49.466;8.468;2022-07-19T07:38:29;26.70;56.00
11112;DHT22;5609;49.466;8.468;2022-07-19T07:40:57;26.80;54.20
11112;DHT22;5609;49.466;8.468;2022-07-19T07:43:24;26.90;49.70
11112;DHT22;5609;49.466;8.468;2022-07-19T07:45:51;26.90;46.80
11112;DHT22;5609;49.466;8.468;2022-07-19T07:48:18;27.00;43.70
11112;DHT22;5609;49.466;8.468;2022-07-19T07:50:45;27.20;39.40
11112;DHT22;5609;49.466;8.468;2022-07-19T07:53:11;27.30;37.40
11112;DHT22;5609;49.466;8.468;2022-07-19T07:55:38;27.50;37.10
11112;DHT22;5609;49.466;8.468;2022-07-19T07:58:08;27.60;32.10
11112;DHT22;5609;49.466;8.468;2022-07-19T08:00:36;27.70;29.70
11112;DHT22;5609;49.466;8.468;2022-07-19T08:03:03;27.80;28.50
11112;DHT22;5609;49.466;8.468;2022-07-19T08:05:30;28.00;28.70
11112;DHT22;5609;49.466;8.468;2022-07-19T08:07:58;28.20;27.30
11112;DHT22;5609;49.466;8.468;2022-07-19T08:10:26;28.40;25.10
11112;DHT22;5609;49.466;8.468;2022-07-19T08:12:53;28.60;22.60
11112;DHT22;5609;49.466;8.468;2022-07-19T08:15:22;28.70;20.70
11112;DHT22;5609;49.466;8.468;2022-07-19T08:17:48;28.80;20.10
11112;DHT22;5609;49.466;8.468;2022-07-19T08:20:15;29.00;18.60
11112;DHT22;5609;49.466;8.468;2022-07-19T08:22:42;29.20;18.00
11112;DHT22;5609;49.466;8.468;2022-07-19T08:25:10;29.30;17.40
11112;DHT22;5609;49.466;8.468;2022-07-19T08:27:40;29.30;15.80
11112;DHT22;5609;49.466;8.468;2022-07-19T08:30:08;29.60;14.80
11112;DHT22;5609;49.466;8.468;2022-07-19T08:32:37;29.70;14.40
11112;DHT22;5609;49.466;8.468;2022-07-19T08:35:04;29.70;13.10
11112;DHT22;5609;49.466;8.468;2022-07-19T08:37:31;29.90;12.70
11112;DHT22;5609;49.466;8.468;2022-07-19T08:39:58;30.10;10.80
11112;DHT22;5609;49.466;8.468;2022-07-19T08:42:25;30.10;9.90
11112;DHT22;5609;49.466;8.468;2022-07-19T08:44:53;30.30;9.90
11112;DHT22;5609;49.466;8.468;2022-07-19T08:47:21;30.50;9.50
11112;DHT22;5609;49.466;8.468;2022-07-19T08:49:52;30.70;6.50
11112;DHT22;5609;49.466;8.468;2022-07-19T08:52:19;31.00;6.90
11112;DHT22;5609;49.466;8.468;2022-07-19T08:54:46;31.20;5.60
11112;DHT22;5609;49.466;8.468;2022-07-19T08:57:14;31.40;1.40
11112;DHT22;5609;49.466;8.468;2022-07-19T08:59:58;31.50;1.00
11112;DHT22;5609;49.466;8.468;2022-07-19T09:02:25;31.70;1.00
11112;DHT22;5609;49.466;8.468;2022-07-19T09:05:00;31.70;1.00
11112;DHT22;5609;49.466;8.468;2022-07-19T09:07:27;32.00;1.00
11112;DHT22;5609;49.466;8.468;2022-07-19T09:10:14;32.30;1.00
11112;DHT22;5609;49.466;8.468;2022-07-19T09:12:56;32.40;1.00
11112;DHT22;5609;49.466;8.468;2022-07-19T09:15:39;32.70;1.00
11112;DHT22;5609;49.466;8.468;2022-07-19T09:18:07;32.90;1.00
11112;DHT22;5609;49.466;8.468;2022-07-19T09:20:36;33.20;1.00
11112;DHT22;5609;49.466;8.468;2022-07-19T09:23:03;33.30;1.00
11112;DHT22;5609;49.466;8.468;2022-07-19T09:25:34;33.50;1.00
11112;DHT22;5609;49.466;8.468;2022-07-19T09:28:02;33.70;1.00
11112;DHT22;5609;49.466;8.468;2022-07-19T09:30:37;33.70;1.00
11112;DHT22;5609;49.466;8.468;2022-07-19T09:33:12;33.90;1.00
11112;DHT22;5609;49.466;8.468;2022-07-19T09:35:43;34.10;1.00
11112;DHT22;5609;49.466;8.468;2022-07-19T09:38:19;34.10;1.00
11112;DHT22;5609;49.466;8.468;2022-07-19T09:40:46;34.20;1.00
11112;DHT22;5609;49.466;8.468;2022-07-19T09:43:14;34.40;1.00
11112;DHT22;5609;49.466;8.468;2022-07-19T09:45:41;34.50;1.00
11112;DHT22;5609;49.466;8.468;2022-07-19T09:50:35;34.70;1.00
11112;DHT22;5609;49.466;8.468;2022-07-19T09:53:05;35.10;1.00
11112;DHT22;5609;49.466;8.468;2022-07-19T09:55:33;35.20;1.00
11112;DHT22;5609;49.466;8.468;2022-07-19T09:58:00;35.20;1.00
11112;DHT22;5609;49.466;8.468;2022-07-19T10:00:29;35.30;1.00
11112;DHT22;5609;49.466;8.468;2022-07-19T10:02:57;35.40;1.00
11112;DHT22;5609;49.466;8.468;2022-07-19T10:05:26;35.10;1.00
11112;DHT22;5609;49.466;8.468;2022-07-19T10:07:53;35.20;1.00
11112;DHT22;5609;49.466;8.468;2022-07-19T10:10:23;35.20;1.00
11112;DHT22;5609;49.466;8.468;2022-07-19T10:12:50;35.20;1.00
11112;DHT22;5609;49.466;8.468;2022-07-19T10:15:19;35.10;1.00
11112;DHT22;5609;49.466;8.468;2022-07-19T10:18:03;35.30;1.00
11112;DHT22;5609;49.466;8.468;2022-07-19T10:20:31;35.60;1.00
11112;DHT22;5609;49.466;8.468;2022-07-19T10:23:00;35.90;1.00
11112;DHT22;5609;49.466;8.468;2022-07-19T10:25:41;36.20;1.00
11112;DHT22;5609;49.466;8.468;2022-07-19T10:28:26;36.00;1.00
11112;DHT22;5609;49.466;8.468;2022-07-19T10:30:54;36.30;1.00
11112;DHT22;5609;49.466;8.468;2022-07-19T10:33:29;36.50;1.00
11112;DHT22;5609;49.466;8.468;2022-07-19T10:35:57;36.60;1.00
11112;DHT22;5609;49.466;8.468;2022-07-19T10:38:24;36.80;1.00
11112;DHT22;5609;49.466;8.468;2022-07-19T10:40:53;36.70;1.00
11112;DHT22;5609;49.466;8.468;2022-07-19T10:43:24;36.60;1.00
11112;DHT22;5609;49.466;8.468;2022-07-19T10:46:09;36.70;1.00
11112;DHT22;5609;49.466;8.468;2022-07-19T10:48:41;36.90;1.00
11112;DHT22;5609;49.466;8.468;2022-07-19T10:51:10;36.90;1.00
11112;DHT22;5609;49.466;8.468;2022-07-19T10:54:02;36.80;1.00
11112;DHT22;5609;49.466;8.468;2022-07-19T10:56:40;36.80;1.00
11112;DHT22;5609;49.466;8.468;2022-07-19T10:59:09;37.00;1.00
11112;DHT22;5609;49.466;8.468;2022-07-19T11:01:38;36.90;1.00
11112;DHT22;5609;49.466;8.468;2022-07-19T11:04:33;37.00;1.00
11112;DHT22;5609;49.466;8.468;2022-07-19T11:07:19;37.00;1.00
11112;DHT22;5609;49.466;8.468;2022-07-19T11:09:50;37.30;1.00
11112;DHT22;5609;49.466;8.468;2022-07-19T11:12:42;37.30;1.00
11112;DHT22;5609;49.466;8.468;2022-07-19T11:15:11;37.50;1.00
11112;DHT22;5609;49.466;8.468;2022-07-19T11:17:38;37.70;1.00
11112;DHT22;5609;49.466;8.468;2022-07-19T11:20:08;37.80;1.00
11112;DHT22;5609;49.466;8.468;2022-07-19T11:22:38;37.90;1.00
11112;DHT22;5609;49.466;8.468;2022-07-19T11:25:06;37.90;1.00
11112;DHT22;5609;49.466;8.468;2022-07-19T11:27:34;37.90;1.00
11112;DHT22;5609;49.466;8.468;2022-07-19T11:30:05;38.00;1.00
11112;DHT22;5609;49.466;8.468;2022-07-19T11:32:33;38.10;1.00
11112;DHT22;5609;49.466;8.468;2022-07-19T11:35:01;38.20;1.00
11112;DHT22;5609;49.466;8.468;2022-07-19T11:37:31;38.20;1.00
11112;DHT22;5609;49.466;8.468;2022-07-19T11:39:58;38.30;1.00
11112;DHT22;5609;49.466;8.468;2022-07-19T11:42:33;38.40;1.00
11112;DHT22;5609;49.466;8.468;2022-07-19T11:45:13;38.80;1.00
11112;DHT22;5609;49.466;8.468;2022-07-19T11:47:42;38.90;1.00
11112;DHT22;5609;49.466;8.468;2022-07-19T11:50:10;39.00;1.00
11112;DHT22;5609;49.466;8.468;2022-07-19T11:52:45;39.10;1.00
11112;DHT22;5609;49.466;8.468;2022-07-19T11:55:12;39.30;1.00
11112;DHT22;5609;49.466;8.468;2022-07-19T11:57:39;39.20;1.00
11112;DHT22;5609;49.466;8.468;2022-07-19T12:00:08;39.20;1.00
11112;DHT22;5609;49.466;8.468;2022-07-19T12:02:59;39.10;1.00
11112;DHT22;5609;49.466;8.468;2022-07-19T12:05:29;39.10;1.00
11112;DHT22;5609;49.466;8.468;2022-07-19T12:07:58;39.40;1.00
11112;DHT22;5609;49.466;8.468;2022-07-19T12:10:39;39.30;1.00
11112;DHT22;5609;49.466;8.468;2022-07-19T12:13:08;39.40;1.00
11112;DHT22;5609;49.466;8.468;2022-07-19T12:15:46;39.60;1.00
11112;DHT22;5609;49.466;8.468;2022-07-19T12:18:16;39.90;1.00
11112;DHT22;5609;49.466;8.468;2022-07-19T12:20:44;40.10;1.00
11112;DHT22;5609;49.466;8.468;2022-07-19T12:23:12;40.10;1.00
11112;DHT22;5609;49.466;8.468;2022-07-19T12:25:39;40.40;1.00
11112;DHT22;5609;49.466;8.468;2022-07-19T12:28:06;40.30;1.00
11112;DHT22;5609;49.466;8.468;2022-07-19T12:30:33;40.20;1.00
11112;DHT22;5609;49.466;8.468;2022-07-19T12:33:08;40.60;1.00
11112;DHT22;5609;49.466;8.468;2022-07-19T12:35:45;40.60;1.00
11112;DHT22;5609;49.466;8.468;2022-07-19T12:38:13;40.80;1.00
11112;DHT22;5609;49.466;8.468;2022-07-19T12:40:42;40.90;1.00
11112;DHT22;5609;49.466;8.468;2022-07-19T12:43:10;41.20;1.00
11112;DHT22;5609;49.466;8.468;2022-07-19T12:45:40;41.50;1.00
11112;DHT22;5609;49.466;8.468;2022-07-19T12:48:10;41.60;1.00
11112;DHT22;5609;49.466;8.468;2022-07-19T12:50:40;41.50;1.00
11112;DHT22;5609;49.466;8.468;2022-07-19T12:53:10;41.50;1.00
11112;DHT22;5609;49.466;8.468;2022-07-19T12:55:38;41.50;1.00
11112;DHT22;5609;49.466;8.468;2022-07-19T12:58:07;41.50;1.00
11112;DHT22;5609;49.466;8.468;2022-07-19T13:00:36;41.60;1.00
11112;DHT22;5609;49.466;8.468;2022-07-19T13:05:31;41.50;1.00
11112;DHT22;5609;49.466;8.468;2022-07-19T13:07:59;42.00;1.00
11112;DHT22;5609;49.466;8.468;2022-07-19T13:10:29;42.00;1.00
11112;DHT22;5609;49.466;8.468;2022-07-19T13:12:56;42.00;1.00
11112;DHT22;5609;49.466;8.468;2022-07-19T13:15:23;42.00;1.00
11112;DHT22;5609;49.466;8.468;2022-07-19T13:17:50;41.90;1.00
11112;DHT22;5609;49.466;8.468;2022-07-19T13:20:17;42.00;1.00
11112;DHT22;5609;49.466;8.468;2022-07-19T13:22:44;42.20;1.00
11112;DHT22;5609;49.466;8.468;2022-07-19T13:25:11;42.20;1.00
11112;DHT22;5609;49.466;8.468;2022-07-19T13:27:40;42.60;1.00
11112;DHT22;5609;49.466;8.468;2022-07-19T13:30:08;42.70;1.00
11112;DHT22;5609;49.466;8.468;2022-07-19T13:32:35;43.20;1.00
11112;DHT22;5609;49.466;8.468;2022-07-19T13:35:02;43.70;1.00
11112;DHT22;5609;49.466;8.468;2022-07-19T13:37:28;44.10;1.00
11112;DHT22;5609;49.466;8.468;2022-07-19T13:39:55;44.20;1.00
11112;DHT22;5609;49.466;8.468;2022-07-19T13:42:22;44.10;1.00
11112;DHT22;5609;49.466;8.468;2022-07-19T13:44:50;44.30;1.00
11112;DHT22;5609;49.466;8.468;2022-07-19T13:47:17;44.80;1.00
11112;DHT22;5609;49.466;8.468;2022-07-19T13:49:44;45.00;1.00
11112;DHT22;5609;49.466;8.468;2022-07-19T13:52:11;45.00;1.00
11112;DHT22;5609;49.466;8.468;2022-07-19T13:54:38;45.40;1.00
11112;DHT22;5609;49.466;8.468;2022-07-19T13:57:05;45.50;1.00
11112;DHT22;5609;49.466;8.468;2022-07-19T13:59:33;45.90;1.00
11112;DHT22;5609;49.466;8.468;2022-07-19T14:02:02;45.90;1.00
11112;DHT22;5609;49.466;8.468;2022-07-19T14:04:29;46.10;1.00
11112;DHT22;5609;49.466;8.468;2022-07-19T14:06:56;45.80;1.00
11112;DHT22;5609;49.466;8.468;2022-07-19T14:09:24;45.80;1.00
11112;DHT22;5609;49.466;8.468;2022-07-19T14:11:51;46.00;1.00
11112;DHT22;5609;49.466;8.468;2022-07-19T14:14:18;45.80;1.00
11112;DHT22;5609;49.466;8.468;2022-07-19T14:16:45;46.10;1.00
11112;DHT22;5609;49.466;8.468;2022-07-19T14:19:13;46.10;1.00
11112;DHT22;5609;49.466;8.468;2022-07-19T14:21:40;45.90;1.00
11112;DHT22;5609;49.466;8.468;2022-07-19T14:24:07;46.30;1.00
11112;DHT22;5609;49.466;8.468;2022-07-19T14:26:35;46.70;1.00
11112;DHT22;5609;49.466;8.468;2022-07-19T14:29:03;47.00;1.00
11112;DHT22;5609;49.466;8.468;2022-07-19T14:31:30;47.20;1.00
11112;DHT22;5609;49.466;8.468;2022-07-19T14:33:57;47.60;1.00
11112;DHT22;5609;49.466;8.468;2022-07-19T14:36:25;47.50;1.00
11112;DHT22;5609;49.466;8.468;2022-07-19T18:42:30;47.90;1.00
11112;DHT22;5609;49.466;8.468;2022-07-19T18:44:57;39.90;1.00
11112;DHT22;5609;49.466;8.468;2022-07-19T18:47:24;39.20;1.00
11112;DHT22;5609;49.466;8.468;2022-07-19T18:49:51;38.60;1.00
11112;DHT22;5609;49.466;8.468;2022-07-19T18:52:18;38.10;1.00
11112;DHT22;5609;49.466;8.468;2022-07-19T18:54:46;37.60;1.00
11112;DHT22;5609;49.466;8.468;2022-07-19T18:57:14;37.20;1.00
11112;DHT22;5609;49.466;8.468;2022-07-19T18:59:41;36.70;1.00
11112;DHT22;5609;49.466;8.468;2022-07-19T19:02:08;36.50;1.00
11112;DHT22;5609;49.466;8.468;2022-07-19T19:04:35;36.30;1.00
11112;DHT22;5609;49.466;8.468;2022-07-19T19:07:02;35.90;1.00
11112;DHT22;5609;49.466;8.468;2022-07-19T19:09:29;35.70;1.00
11112;DHT22;5609;49.466;8.468;2022-07-19T19:11:57;35.40;1.00
11112;DHT22;5609;49.466;8.468;2022-07-19T19:14:24;35.20;1.00
11112;DHT22;5609;49.466;8.468;2022-07-19T19:16:51;35.10;1.00
11112;DHT22;5609;49.466;8.468;2022-07-19T19:19:18;34.80;1.00
11112;DHT22;5609;49.466;8.468;2022-07-19T19:21:45;34.50;1.00
11112;DHT22;5609;49.466;8.468;2022-07-19T19:24:12;34.30;1.00
11112;DHT22;5609;49.466;8.468;2022-07-19T19:26:40;34.00;1.00
11112;DHT22;5609;49.466;8.468;2022-07-19T19:29:09;33.80;1.00
11112;DHT22;5609;49.466;8.468;2022-07-19T19:31:36;33.60;1.00
11112;DHT22;5609;49.466;8.468;2022-07-19T19:34:03;33.40;1.00
11112;DHT22;5609;49.466;8.468;2022-07-19T19:36:30;33.20;1.00
11112;DHT22;5609;49.466;8.468;2022-07-19T19:38:57;32.90;1.00
11112;DHT22;5609;49.466;8.468;2022-07-19T19:41:24;32.70;1.00
11112;DHT22;5609;49.466;8.468;2022-07-19T19:43:52;32.60;1.00
11112;DHT22;5609;49.466;8.468;2022-07-19T19:46:20;32.30;1.00
11112;DHT22;5609;49.466;8.468;2022-07-19T19:48:47;32.20;1.00
11112;DHT22;5609;49.466;8.468;2022-07-19T19:51:14;32.00;1.00
11112;DHT22;5609;49.466;8.468;2022-07-19T19:53:49;31.90;1.00
11112;DHT22;5609;49.466;8.468;2022-07-19T19:56:19;31.80;1.00
11112;DHT22;5609;49.466;8.468;2022-07-19T19:58:46;31.70;1.00
11112;DHT22;5609;49.466;8.468;2022-07-19T20:01:13;31.60;1.00
11112;DHT22;5609;49.466;8.468;2022-07-19T20:03:41;31.50;1.00
11112;DHT22;5609;49.466;8.468;2022-07-19T20:06:08;31.30;1.00
11112;DHT22;5609;49.466;8.468;2022-07-19T20:08:35;31.30;1.00
11112;DHT22;5609;49.466;8.468;2022-07-19T20:11:02;31.10;1.00
11112;DHT22;5609;49.466;8.468;2022-07-19T20:13:29;31.00;1.00